Time;durP1;ratioP1;P1;durP2;ratioP2;P2;SDS_P1;SDS_P2;PMS_P1;PMS_P2;Temp;Humidity;BMP_temperature;BMP_pressure;BME280_temperature;BME280_humidity;BME280_pressure;Samples;Min_cycle;Max_cycle;Signal;HPM_P1;HPM_P2
2023/01/17 00:00:47;;;;;;;38.67;20.47;;;;;;;;;;4934832;29;20435;-62
2023/01/17 00:03:14;;;;;;;39.33;21.07;;;;;;;;;;4934727;29;20851;-61
2023/01/17 00:11:29;;;;;;;35.63;20.07;;;;;;;;;;4934511;29;20470;-62
2023/01/17 00:13:55;;;;;;;39.03;20.77;;;;;;;;;;4935398;29;20435;-62
2023/01/17 00:16:22;;;;;;;35.37;19.03;;;;;;;;;;4934287;29;20646;-62
2023/01/17 00:26:01;;;;;;;31.27;17.97;;;;;;;;;;4934418;29;20533;-62
2023/01/17 01:34:36;;;;;;;30.43;17.40;;;;;;;;;;4933166;29;20997;-62
2023/01/17 01:37:20;;;;;;;30.67;17.63;;;;;;;;;;4932903;29;20429;-61
2023/01/17 01:39:47;;;;;;;32.57;17.87;;;;;;;;;;4933220;29;20878;-61
2023/01/17 01:42:31;;;;;;;29.57;17.43;;;;;;;;;;4918399;29;20523;-61
2023/01/17 02:17:10;;;;;;;33.23;17.23;;;;;;;;;;4932289;29;20449;-61
2023/01/17 02:20:07;;;;;;;29.90;16.47;;;;;;;;;;4932612;29;20470;-62
2023/01/17 02:22:53;;;;;;;31.47;16.37;;;;;;;;;;4932610;29;20477;-62
2023/01/17 02:25:56;;;;;;;34.60;17.77;;;;;;;;;;4932634;29;20422;-62
2023/01/17 02:28:45;;;;;;;32.67;16.40;;;;;;;;;;4932149;29;20529;-61
2023/01/17 02:31:38;;;;;;;30.93;16.57;;;;;;;;;;4932416;29;20443;-62
2023/01/17 02:34:04;;;;;;;29.83;15.67;;;;;;;;;;4917067;29;20451;-62
2023/01/17 02:36:32;;;;;;;31.20;17.03;;;;;;;;;;4932342;29;20443;-62
2023/01/17 02:39:06;;;;;;;31.03;16.80;;;;;;;;;;4915459;29;20564;-61
2023/01/17 02:41:36;;;;;;;29.80;16.07;;;;;;;;;;4915537;29;20451;-61
2023/01/17 02:44:03;;;;;;;30.27;16.00;;;;;;;;;;4915530;29;20437;-62
2023/01/17 02:46:30;;;;;;;25.47;14.00;;;;;;;;;;4932499;29;20527;-61
2023/01/17 02:49:14;;;;;;;25.57;14.70;;;;;;;;;;4932162;29;20424;-62
2023/01/17 02:51:45;;;;;;;28.27;14.43;;;;;;;;;;4915293;29;20502;-61
2023/01/17 02:54:30;;;;;;;28.67;15.53;;;;;;;;;;4915512;29;20470;-62
2023/01/17 02:56:57;;;;;;;25.87;14.30;;;;;;;;;;4932132;29;20806;-62
2023/01/17 02:59:43;;;;;;;25.43;14.47;;;;;;;;;;4932063;29;20470;-62
2023/01/17 03:02:10;;;;;;;27.67;15.10;;;;;;;;;;4932353;29;20931;-62
2023/01/17 03:04:47;;;;;;;25.90;13.97;;;;;;;;;;4932089;29;20419;-61
2023/01/17 03:07:16;;;;;;;27.10;15.40;;;;;;;;;;4899619;29;20448;-61
2023/01/17 03:09:44;;;;;;;30.00;15.63;;;;;;;;;;4931994;29;20803;-62
2023/01/17 03:12:11;;;;;;;27.10;14.43;;;;;;;;;;4915465;29;20442;-61
2023/01/17 03:14:38;;;;;;;26.33;14.57;;;;;;;;;;4932064;29;20449;-61
2023/01/17 03:17:04;;;;;;;25.67;14.47;;;;;;;;;;4932454;29;20438;-62
2023/01/17 03:19:31;;;;;;;27.00;15.40;;;;;;;;;;4932085;29;20528;-62
2023/01/17 03:21:58;;;;;;;28.27;15.17;;;;;;;;;;4932063;29;20462;-61
2023/01/17 03:24:24;;;;;;;23.23;13.70;;;;;;;;;;4935241;29;20443;-62
2023/01/17 03:26:51;;;;;;;22.83;13.53;;;;;;;;;;4918555;29;20466;-61
2023/01/17 03:29:17;;;;;;;24.37;14.23;;;;;;;;;;4935273;29;20530;-62
2023/01/17 03:31:45;;;;;;;25.33;14.77;;;;;;;;;;4935600;29;20440;-61
2023/01/17 03:34:12;;;;;;;23.47;13.27;;;;;;;;;;4935266;29;20939;-61
2023/01/17 03:36:38;;;;;;;24.37;13.40;;;;;;;;;;4935383;29;20434;-61
2023/01/17 03:39:22;;;;;;;22.47;13.70;;;;;;;;;;4935178;29;20482;-61
2023/01/17 03:41:49;;;;;;;22.97;13.37;;;;;;;;;;4935269;29;20486;-61
2023/01/17 03:44:16;;;;;;;25.40;13.77;;;;;;;;;;4935195;29;20442;-61
2023/01/17 03:46:43;;;;;;;25.10;14.73;;;;;;;;;;4935298;29;20431;-61
2023/01/17 03:49:10;;;;;;;22.77;12.87;;;;;;;;;;4934991;29;20826;-61
2023/01/17 03:51:36;;;;;;;25.53;13.90;;;;;;;;;;4935041;29;20423;-61
2023/01/17 03:54:03;;;;;;;22.00;12.43;;;;;;;;;;4934766;29;20447;-61
2023/01/17 03:56:30;;;;;;;21.63;12.17;;;;;;;;;;4934964;29;20481;-61
2023/01/17 03:59:14;;;;;;;20.33;11.50;;;;;;;;;;4935031;29;20466;-61
2023/01/17 04:01:40;;;;;;;21.17;11.87;;;;;;;;;;4934738;29;20473;-61
2023/01/17 04:04:07;;;;;;;21.63;12.13;;;;;;;;;;4934601;29;20435;-62
2023/01/17 04:06:34;;;;;;;20.77;11.80;;;;;;;;;;4934987;29;20803;-61
2023/01/17 04:09:01;;;;;;;22.90;13.03;;;;;;;;;;4934544;29;20427;-61
2023/01/17 04:11:49;;;;;;;21.37;12.90;;;;;;;;;;4934571;29;20922;-61
2023/01/17 04:14:16;;;;;;;22.13;12.17;;;;;;;;;;4934713;29;20440;-62
2023/01/17 04:17:01;;;;;;;22.83;13.40;;;;;;;;;;4935219;29;20415;-61
2023/01/17 04:19:28;;;;;;;20.80;12.07;;;;;;;;;;4934540;29;20474;-61
2023/01/17 04:22:13;;;;;;;22.10;11.60;;;;;;;;;;4934620;29;20444;-61
2023/01/17 04:24:39;;;;;;;19.40;11.50;;;;;;;;;;4934343;29;20482;-61
2023/01/17 04:27:06;;;;;;;20.00;12.17;;;;;;;;;;4934414;29;20545;-61
2023/01/17 04:29:32;;;;;;;18.50;11.37;;;;;;;;;;4934223;29;20521;-61
2023/01/17 04:31:59;;;;;;;20.33;11.13;;;;;;;;;;4934646;29;20431;-61
2023/01/17 04:34:26;;;;;;;19.37;12.03;;;;;;;;;;4916407;29;20431;-61
2023/01/17 04:36:52;;;;;;;18.43;10.97;;;;;;;;;;4934265;29;20887;-61
2023/01/17 04:39:19;;;;;;;18.60;11.77;;;;;;;;;;4933976;29;20529;-62
2023/01/17 04:41:46;;;;;;;17.50;10.67;;;;;;;;;;4934027;29;20442;-62
2023/01/17 04:44:12;;;;;;;16.47;10.70;;;;;;;;;;4934748;29;21195;-61
2023/01/17 04:46:39;;;;;;;17.53;11.03;;;;;;;;;;4934121;29;20442;-61
2023/01/17 04:49:23;;;;;;;18.70;11.20;;;;;;;;;;4933784;29;20430;-61
2023/01/17 04:51:49;;;;;;;18.93;11.57;;;;;;;;;;4933909;29;20494;-62
2023/01/17 04:54:34;;;;;;;23.17;12.87;;;;;;;;;;4933818;29;20434;-61
2023/01/17 04:57:00;;;;;;;20.77;12.27;;;;;;;;;;4933491;29;21009;-61
2023/01/17 04:59:27;;;;;;;21.47;12.53;;;;;;;;;;4933864;29;20470;-61
2023/01/17 05:01:54;;;;;;;21.23;12.97;;;;;;;;;;4934041;29;20479;-61
2023/01/17 05:04:20;;;;;;;20.17;12.30;;;;;;;;;;4933353;29;20993;-62
2023/01/17 05:07:05;;;;;;;20.30;12.87;;;;;;;;;;4933664;29;20425;-61
2023/01/17 05:09:31;;;;;;;22.30;13.57;;;;;;;;;;4933587;29;20437;-61
2023/01/17 05:12:15;;;;;;;20.90;12.53;;;;;;;;;;4933498;29;20425;-61
2023/01/17 05:14:42;;;;;;;24.87;13.57;;;;;;;;;;4916613;29;20473;-63
2023/01/17 05:17:10;;;;;;;23.57;14.13;;;;;;;;;;4933984;29;20434;-61
2023/01/17 05:19:36;;;;;;;20.07;13.30;;;;;;;;;;4933274;29;20561;-61
2023/01/17 05:22:13;;;;;;;23.90;14.40;;;;;;;;;;4933318;29;20434;-62
2023/01/17 05:24:57;;;;;;;23.43;13.83;;;;;;;;;;4933325;29;20830;-61
2023/01/17 05:27:24;;;;;;;24.67;14.30;;;;;;;;;;4933048;29;20426;-62
2023/01/17 05:30:08;;;;;;;22.03;13.80;;;;;;;;;;4933347;29;20934;-61
2023/01/17 05:32:35;;;;;;;24.33;14.53;;;;;;;;;;4933361;29;20482;-61
2023/01/17 05:35:20;;;;;;;23.67;13.83;;;;;;;;;;4933100;29;20419;-61
2023/01/17 05:37:50;;;;;;;25.13;13.77;;;;;;;;;;4933458;29;20435;-61
2023/01/17 05:40:34;;;;;;;22.57;13.67;;;;;;;;;;4933163;29;20466;-61
2023/01/17 05:43:04;;;;;;;22.83;14.27;;;;;;;;;;4932746;29;20497;-61
2023/01/17 05:45:31;;;;;;;22.73;14.20;;;;;;;;;;4933032;29;20517;-61
2023/01/17 05:47:58;;;;;;;25.60;15.20;;;;;;;;;;4933416;29;20435;-61
2023/01/17 05:50:28;;;;;;;21.70;13.83;;;;;;;;;;4933026;29;20806;-61
2023/01/17 05:52:56;;;;;;;24.97;14.60;;;;;;;;;;4933441;29;20487;-62
2023/01/17 05:55:23;;;;;;;24.57;14.90;;;;;;;;;;4932713;29;20502;-62
2023/01/17 05:57:49;;;;;;;25.90;15.93;;;;;;;;;;4932565;29;20434;-62
2023/01/17 06:00:33;;;;;;;26.60;16.83;;;;;;;;;;4932904;29;20469;-62
2023/01/17 06:03:00;;;;;;;28.20;16.83;;;;;;;;;;4932650;29;20441;-62
2023/01/17 06:05:27;;;;;;;26.53;15.07;;;;;;;;;;4932591;29;20439;-61
2023/01/17 06:07:53;;;;;;;23.10;14.63;;;;;;;;;;4916182;29;20438;-62
2023/01/17 06:10:21;;;;;;;22.30;14.30;;;;;;;;;;4932448;29;20439;-61
2023/01/17 06:12:47;;;;;;;23.07;14.67;;;;;;;;;;4932452;29;20494;-62
2023/01/17 06:15:14;;;;;;;21.27;12.73;;;;;;;;;;4932607;29;20445;-62
2023/01/17 06:17:41;;;;;;;16.00;10.80;;;;;;;;;;4932378;29;20773;-62
2023/01/17 06:20:08;;;;;;;17.90;11.20;;;;;;;;;;4932783;29;20489;-62
2023/01/17 06:22:35;;;;;;;16.60;11.77;;;;;;;;;;4932720;29;20450;-62
2023/01/17 06:25:01;;;;;;;16.37;11.27;;;;;;;;;;4932378;29;20941;-62
2023/01/17 06:27:46;;;;;;;19.43;12.20;;;;;;;;;;4931842;29;20422;-62
2023/01/17 06:30:15;;;;;;;19.10;12.40;;;;;;;;;;4932562;29;20442;-62
2023/01/17 06:32:41;;;;;;;20.50;13.90;;;;;;;;;;4931063;29;20819;-62
2023/01/17 06:35:08;;;;;;;23.77;14.10;;;;;;;;;;4932619;29;20434;-62
2023/01/17 06:37:35;;;;;;;23.27;14.23;;;;;;;;;;4932391;29;20438;-62
2023/01/17 06:40:19;;;;;;;22.13;14.40;;;;;;;;;;4932079;29;20470;-61
2023/01/17 06:42:45;;;;;;;24.47;15.37;;;;;;;;;;4932232;29;20525;-62
2023/01/17 06:45:12;;;;;;;24.83;15.27;;;;;;;;;;4932678;29;20760;-62
2023/01/17 06:47:41;;;;;;;23.43;15.47;;;;;;;;;;4932129;29;20442;-61
2023/01/17 06:50:08;;;;;;;25.70;15.63;;;;;;;;;;4932580;29;20457;-61
2023/01/17 06:52:35;;;;;;;26.03;16.57;;;;;;;;;;4932255;29;20430;-61
2023/01/17 06:55:01;;;;;;;26.57;16.30;;;;;;;;;;4932061;29;20454;-61
2023/01/17 06:57:28;;;;;;;30.13;17.80;;;;;;;;;;4932790;29;20478;-62
2023/01/17 06:59:54;;;;;;;22.73;13.97;;;;;;;;;;4919204;29;20506;-62
2023/01/17 07:02:21;;;;;;;29.20;17.10;;;;;;;;;;4935878;29;20915;-62
2023/01/17 07:04:48;;;;;;;30.57;17.60;;;;;;;;;;4936131;29;20446;-61
2023/01/17 07:07:32;;;;;;;30.07;17.30;;;;;;;;;;4935919;29;20964;-62
2023/01/17 07:09:59;;;;;;;29.60;18.33;;;;;;;;;;4935890;29;20434;-62
2023/01/17 07:12:43;;;;;;;27.73;16.23;;;;;;;;;;4935444;29;20544;-62
2023/01/17 07:15:10;;;;;;;27.47;17.40;;;;;;;;;;4935714;29;20489;-62
2023/01/17 07:17:37;;;;;;;26.17;16.73;;;;;;;;;;4935758;29;20501;-63
2023/01/17 07:20:03;;;;;;;29.43;18.17;;;;;;;;;;4935921;29;20474;-62
2023/01/17 07:22:30;;;;;;;27.83;16.87;;;;;;;;;;4935649;29;20438;-62
2023/01/17 07:25:00;;;;;;;30.50;18.43;;;;;;;;;;4935668;29;20438;-62
2023/01/17 07:27:29;;;;;;;29.07;18.17;;;;;;;;;;4935292;29;20533;-61
2023/01/17 07:29:56;;;;;;;35.33;19.43;;;;;;;;;;4935349;29;20498;-62
2023/01/17 07:32:40;;;;;;;32.13;18.43;;;;;;;;;;4935315;29;20430;-61
2023/01/17 07:35:06;;;;;;;34.23;20.30;;;;;;;;;;4935609;29;20498;-62
2023/01/17 07:37:50;;;;;;;35.70;20.13;;;;;;;;;;4935789;29;20460;-61
2023/01/17 07:40:17;;;;;;;34.60;19.40;;;;;;;;;;4935401;29;20474;-62
2023/01/17 07:43:01;;;;;;;34.87;19.30;;;;;;;;;;4935058;29;20444;-61
2023/01/17 07:45:29;;;;;;;36.17;20.23;;;;;;;;;;4935306;29;20441;-62
2023/01/17 07:48:14;;;;;;;35.10;19.93;;;;;;;;;;4935234;29;20415;-61
2023/01/17 07:50:41;;;;;;;40.30;21.03;;;;;;;;;;4934839;29;20435;-62
2023/01/17 07:53:07;;;;;;;35.63;20.63;;;;;;;;;;4918554;29;20534;-62
2023/01/17 07:55:34;;;;;;;38.87;21.70;;;;;;;;;;4935046;29;20460;-62
2023/01/17 07:58:01;;;;;;;40.93;22.33;;;;;;;;;;4934687;29;20435;-62
2023/01/17 08:00:28;;;;;;;41.00;22.20;;;;;;;;;;4935115;29;20839;-62
2023/01/17 08:02:56;;;;;;;42.13;22.60;;;;;;;;;;4935068;29;20938;-62
2023/01/17 08:05:22;;;;;;;42.47;23.33;;;;;;;;;;4934930;29;20435;-62
2023/01/17 08:08:07;;;;;;;39.90;21.93;;;;;;;;;;4920765;29;20419;-62
2023/01/17 08:10:33;;;;;;;45.07;22.60;;;;;;;;;;4934857;29;20981;-62
2023/01/17 08:13:00;;;;;;;44.97;22.20;;;;;;;;;;4934680;29;21367;-62
2023/01/17 08:15:27;;;;;;;41.30;23.47;;;;;;;;;;4934728;29;20442;-62
2023/01/17 08:17:56;;;;;;;44.87;23.43;;;;;;;;;;4934592;29;20443;-62
2023/01/17 08:20:23;;;;;;;42.53;23.23;;;;;;;;;;4934129;29;20512;-62
2023/01/17 08:22:54;;;;;;;44.87;22.00;;;;;;;;;;4918600;29;20521;-62
2023/01/17 08:25:23;;;;;;;45.13;22.43;;;;;;;;;;4934648;29;20435;-62
2023/01/17 08:27:50;;;;;;;45.30;23.50;;;;;;;;;;4917294;29;20430;-62
2023/01/17 08:30:17;;;;;;;46.83;23.77;;;;;;;;;;4934238;29;20431;-62
2023/01/17 08:32:44;;;;;;;43.83;23.80;;;;;;;;;;4934565;29;20438;-62
2023/01/17 08:35:28;;;;;;;39.47;20.33;;;;;;;;;;4934469;29;20952;-62
2023/01/17 08:37:55;;;;;;;42.47;24.10;;;;;;;;;;4934618;29;20431;-62
2023/01/17 08:40:22;;;;;;;42.40;23.93;;;;;;;;;;4934102;29;20463;-62
2023/01/17 08:42:52;;;;;;;43.87;23.90;;;;;;;;;;4933991;29;20448;-62
2023/01/17 08:45:19;;;;;;;44.57;23.77;;;;;;;;;;4916941;29;20454;-62
2023/01/17 08:47:45;;;;;;;41.40;24.27;;;;;;;;;;4934204;29;20430;-62
2023/01/17 08:50:12;;;;;;;43.57;23.70;;;;;;;;;;4934513;29;20510;-62
2023/01/17 08:52:39;;;;;;;41.60;23.63;;;;;;;;;;4934018;29;20441;-61
2023/01/17 08:55:08;;;;;;;43.37;25.40;;;;;;;;;;4934070;29;20941;-62
2023/01/17 08:57:35;;;;;;;42.57;24.37;;;;;;;;;;4933811;29;20866;-62
2023/01/17 09:00:02;;;;;;;44.23;24.00;;;;;;;;;;4933606;29;20474;-62
2023/01/17 09:02:47;;;;;;;41.43;22.77;;;;;;;;;;4933912;29;20419;-62
2023/01/17 09:05:13;;;;;;;40.03;23.67;;;;;;;;;;4917293;29;21179;-62
2023/01/17 09:07:40;;;;;;;39.30;22.73;;;;;;;;;;4933736;29;20447;-62
2023/01/17 09:10:09;;;;;;;42.20;24.80;;;;;;;;;;4933903;29;20431;-62
2023/01/17 09:12:36;;;;;;;38.20;23.07;;;;;;;;;;4933522;29;20446;-62
2023/01/17 09:15:03;;;;;;;40.70;22.83;;;;;;;;;;4933766;29;20458;-62
2023/01/17 09:17:30;;;;;;;40.50;24.37;;;;;;;;;;4933572;29;20526;-62
2023/01/17 09:19:58;;;;;;;38.30;23.07;;;;;;;;;;4933464;29;20434;-62
2023/01/17 09:22:25;;;;;;;37.13;22.97;;;;;;;;;;4933401;29;20807;-62
2023/01/17 09:24:52;;;;;;;38.00;21.47;;;;;;;;;;4933473;29;20431;-62
2023/01/17 09:27:19;;;;;;;35.83;23.03;;;;;;;;;;4933243;29;20431;-62
2023/01/17 09:30:03;;;;;;;36.43;21.53;;;;;;;;;;4933330;29;20957;-62
2023/01/17 09:32:30;;;;;;;40.37;23.23;;;;;;;;;;4933396;29;20431;-62
2023/01/17 09:35:17;;;;;;;33.70;21.17;;;;;;;;;;4919169;29;20411;-62
2023/01/17 09:37:43;;;;;;;34.27;22.47;;;;;;;;;;4933373;29;20474;-62
2023/01/17 09:40:28;;;;;;;36.27;23.57;;;;;;;;;;4933172;29;20462;-62
2023/01/17 09:43:02;;;;;;;35.03;20.33;;;;;;;;;;4932936;29;20442;-62
2023/01/17 09:45:30;;;;;;;34.97;20.73;;;;;;;;;;4916807;29;20792;-62
2023/01/17 09:47:57;;;;;;;35.07;21.43;;;;;;;;;;4915984;29;20980;-62
2023/01/17 09:50:30;;;;;;;40.90;23.40;;;;;;;;;;4933076;29;20441;-62
2023/01/17 09:53:01;;;;;;;36.60;22.40;;;;;;;;;;4916553;29;20942;-62
2023/01/17 09:55:32;;;;;;;37.40;23.30;;;;;;;;;;4916194;29;20509;-62
2023/01/17 09:58:19;;;;;;;34.67;21.83;;;;;;;;;;4918468;29;20850;-62
2023/01/17 10:01:05;;;;;;;32.60;20.20;;;;;;;;;;4932799;29;20466;-62
2023/01/17 10:03:38;;;;;;;36.97;22.30;;;;;;;;;;4932799;29;20458;-62
2023/01/17 10:06:11;;;;;;;37.03;22.33;;;;;;;;;;4915953;29;20830;-62
2023/01/17 10:08:54;;;;;;;33.83;18.67;;;;;;;;;;4932762;29;20427;-62
2023/01/17 10:11:20;;;;;;;36.27;21.50;;;;;;;;;;4932702;29;20434;-61
2023/01/17 10:13:47;;;;;;;41.43;22.90;;;;;;;;;;4933378;29;20442;-62
2023/01/17 10:16:32;;;;;;;37.27;20.97;;;;;;;;;;4932993;29;20522;-62
2023/01/17 10:19:40;;;;;;;41.00;22.13;;;;;;;;;;4932697;29;20425;-62
2023/01/17 10:22:17;;;;;;;36.73;20.20;;;;;;;;;;4914226;29;20482;-62
2023/01/17 10:24:50;;;;;;;36.63;22.27;;;;;;;;;;4915775;29;20836;-62
2023/01/17 10:27:19;;;;;;;41.30;21.73;;;;;;;;;;4932513;29;20446;-61
2023/01/17 10:29:46;;;;;;;24.37;10.53;;;;;;;;;;4915728;29;20459;-62
2023/01/17 10:32:13;;;;;;;26.67;14.73;;;;;;;;;;4932229;29;20431;-62
2023/01/17 10:34:49;;;;;;;20.73;10.80;;;;;;;;;;4932428;29;21313;-61
2023/01/17 10:37:31;;;;;;;30.27;15.93;;;;;;;;;;4932672;29;20437;-62
2023/01/17 10:40:00;;;;;;;28.67;17.37;;;;;;;;;;4932417;29;20946;-62
2023/01/17 10:42:39;;;;;;;25.33;16.20;;;;;;;;;;4932614;29;20992;-62
2023/01/17 10:45:12;;;;;;;15.57;9.23;;;;;;;;;;4932798;29;20443;-62
2023/01/17 10:47:39;;;;;;;26.87;16.33;;;;;;;;;;4915820;29;20527;-62
2023/01/17 10:50:10;;;;;;;29.13;18.03;;;;;;;;;;4915859;29;20449;-62
2023/01/17 10:52:37;;;;;;;29.43;18.63;;;;;;;;;;4915691;29;20796;-62
2023/01/17 10:55:10;;;;;;;27.03;17.67;;;;;;;;;;4932559;29;20438;-61
2023/01/17 10:57:38;;;;;;;29.03;17.37;;;;;;;;;;4932340;29;20449;-62
2023/01/17 11:00:16;;;;;;;27.23;18.03;;;;;;;;;;4932181;29;20434;-62
2023/01/17 11:02:45;;;;;;;29.93;17.43;;;;;;;;;;4915669;29;21001;-62
2023/01/17 11:05:25;;;;;;;26.37;18.27;;;;;;;;;;4915760;29;20426;-62
2023/01/17 11:07:59;;;;;;;27.80;17.97;;;;;;;;;;4932484;29;20457;-64
2023/01/17 11:10:58;;;;;;;28.63;17.20;;;;;;;;;;4915636;29;20776;-62
2023/01/17 11:13:36;;;;;;;28.70;18.17;;;;;;;;;;4910026;29;20474;-62
2023/01/17 11:16:05;;;;;;;28.67;17.63;;;;;;;;;;4931988;29;20471;-62
2023/01/17 11:18:33;;;;;;;28.07;18.27;;;;;;;;;;4932141;29;20435;-62
2023/01/17 11:21:10;;;;;;;22.80;14.53;;;;;;;;;;4931983;29;20463;-62
2023/01/17 11:23:38;;;;;;;25.53;16.50;;;;;;;;;;4932011;29;20206;-62
2023/01/17 11:26:06;;;;;;;26.43;16.97;;;;;;;;;;4915187;29;20497;-62
2023/01/17 11:28:36;;;;;;;25.57;15.53;;;;;;;;;;4915178;29;20473;-62
2023/01/17 11:31:15;;;;;;;19.70;12.37;;;;;;;;;;4931816;29;20439;-61
2023/01/17 11:33:47;;;;;;;22.27;14.63;;;;;;;;;;4932027;29;20438;-62
2023/01/17 11:36:14;;;;;;;21.80;14.13;;;;;;;;;;4914866;29;21079;-62
2023/01/17 11:38:45;;;;;;;26.20;16.67;;;;;;;;;;4931798;29;20799;-61
2023/01/17 11:41:19;;;;;;;30.33;18.07;;;;;;;;;;4915354;29;20223;-62
2023/01/17 11:44:18;;;;;;;21.50;13.50;;;;;;;;;;4920041;29;20431;-62
2023/01/17 11:46:45;;;;;;;29.30;15.83;;;;;;;;;;4918919;29;20823;-62
2023/01/17 11:49:21;;;;;;;26.93;16.03;;;;;;;;;;4935225;29;20191;-62
2023/01/17 11:51:48;;;;;;;24.53;15.80;;;;;;;;;;4935070;29;20437;-62
2023/01/17 11:54:20;;;;;;;23.50;12.87;;;;;;;;;;4935145;29;20438;-61
2023/01/17 11:56:47;;;;;;;15.97;8.10;;;;;;;;;;4934900;29;20726;-63
2023/01/17 11:59:14;;;;;;;26.20;15.77;;;;;;;;;;4935198;29;20411;-62
2023/01/17 12:01:47;;;;;;;19.23;13.40;;;;;;;;;;4934944;29;21261;-61
2023/01/17 12:04:14;;;;;;;20.63;12.43;;;;;;;;;;4918324;29;20521;-62
2023/01/17 12:06:41;;;;;;;15.33;9.43;;;;;;;;;;4934927;29;21083;-61
2023/01/17 12:09:32;;;;;;;20.03;13.47;;;;;;;;;;4934559;29;20798;-62
2023/01/17 12:14:59;;;;;;;20.67;13.27;;;;;;;;;;4934412;29;20450;-62
2023/01/17 12:18:04;;;;;;;15.73;10.90;;;;;;;;;;4934371;29;20419;-62
2023/01/17 12:20:37;;;;;;;17.90;11.80;;;;;;;;;;4934588;29;20506;-61
2023/01/17 12:23:15;;;;;;;16.50;11.27;;;;;;;;;;4934721;29;20438;-61
2023/01/17 12:25:58;;;;;;;17.37;10.50;;;;;;;;;;4917679;29;20438;-62
2023/01/17 12:28:44;;;;;;;16.67;10.77;;;;;;;;;;4934222;29;20470;-62
2023/01/17 12:31:11;;;;;;;17.47;11.27;;;;;;;;;;4934578;29;20438;-61
2023/01/17 12:33:38;;;;;;;17.67;12.27;;;;;;;;;;4934596;29;20662;-61
2023/01/17 12:36:16;;;;;;;16.10;10.67;;;;;;;;;;4934581;29;20211;-61
2023/01/17 12:38:43;;;;;;;18.07;10.70;;;;;;;;;;4918220;29;20438;-61
2023/01/17 12:41:15;;;;;;;19.30;12.23;;;;;;;;;;4934455;29;20454;-61
2023/01/17 12:43:42;;;;;;;18.90;11.80;;;;;;;;;;4934037;29;20437;-62
2023/01/17 12:46:12;;;;;;;19.70;10.93;;;;;;;;;;4934229;29;20435;-61
2023/01/17 12:48:38;;;;;;;18.13;12.40;;;;;;;;;;4934149;29;20445;-63
2023/01/17 12:51:26;;;;;;;18.83;11.17;;;;;;;;;;4933668;29;20434;-62
2023/01/17 12:54:08;;;;;;;18.53;11.43;;;;;;;;;;4917451;29;20470;-62
2023/01/17 12:56:35;;;;;;;17.73;11.93;;;;;;;;;;4933199;29;20454;-62
2023/01/17 12:59:14;;;;;;;14.90;7.13;;;;;;;;;;4933967;29;20427;-62
2023/01/17 13:01:41;;;;;;;19.67;12.20;;;;;;;;;;4933437;29;20577;-62
2023/01/17 13:04:27;;;;;;;15.73;10.27;;;;;;;;;;4916969;29;20430;-62
2023/01/17 13:07:03;;;;;;;17.47;10.37;;;;;;;;;;4934093;29;20450;-62
2023/01/17 13:09:35;;;;;;;17.43;11.37;;;;;;;;;;4933719;29;20565;-61
2023/01/17 13:12:03;;;;;;;19.10;10.67;;;;;;;;;;4933282;29;20209;-61
2023/01/17 13:14:31;;;;;;;15.83;11.00;;;;;;;;;;4916815;29;20426;-62
2023/01/17 13:16:58;;;;;;;18.03;11.03;;;;;;;;;;4933913;29;20468;-62
2023/01/17 13:19:33;;;;;;;15.57;10.43;;;;;;;;;;4916730;29;20846;-62
2023/01/17 13:22:01;;;;;;;11.47;8.07;;;;;;;;;;4916772;29;20474;-61
2023/01/17 13:24:44;;;;;;;12.27;8.70;;;;;;;;;;4933118;29;20414;-62
2023/01/17 13:27:24;;;;;;;12.47;8.10;;;;;;;;;;4933382;29;20995;-61
2023/01/17 13:29:57;;;;;;;15.43;10.43;;;;;;;;;;4933050;29;20505;-62
2023/01/17 13:32:29;;;;;;;12.70;8.97;;;;;;;;;;4933410;29;20442;-62
2023/01/17 13:35:35;;;;;;;14.33;9.43;;;;;;;;;;4933478;29;20422;-62
2023/01/17 13:38:05;;;;;;;17.20;10.60;;;;;;;;;;4933477;29;20969;-61
2023/01/17 13:40:38;;;;;;;14.70;10.13;;;;;;;;;;4933118;29;20486;-63
2023/01/17 13:43:24;;;;;;;15.83;9.50;;;;;;;;;;4932744;29;20517;-62
2023/01/17 13:46:10;;;;;;;13.20;9.13;;;;;;;;;;4933043;29;20422;-62
2023/01/17 13:48:37;;;;;;;12.77;8.97;;;;;;;;;;4916244;29;20486;-62
2023/01/17 13:51:04;;;;;;;12.10;8.80;;;;;;;;;;4932915;29;20495;-62
2023/01/17 13:53:34;;;;;;;12.03;8.17;;;;;;;;;;4916012;29;20195;-62
2023/01/17 13:56:19;;;;;;;13.37;9.03;;;;;;;;;;4932927;29;20486;-61
2023/01/17 13:59:04;;;;;;;9.37;6.40;;;;;;;;;;4933179;29;20430;-62
2023/01/17 14:01:30;;;;;;;11.03;7.30;;;;;;;;;;4932418;29;20459;-62
2023/01/17 14:04:15;;;;;;;11.17;8.23;;;;;;;;;;4933000;29;20423;-62
2023/01/17 14:06:43;;;;;;;12.33;8.47;;;;;;;;;;4932505;29;20846;-62
2023/01/17 14:09:13;;;;;;;12.40;7.93;;;;;;;;;;4932820;29;20470;-61
2023/01/17 14:11:56;;;;;;;11.27;8.13;;;;;;;;;;4932454;29;20430;-61
2023/01/17 14:14:40;;;;;;;12.60;8.30;;;;;;;;;;4932649;29;20435;-62
2023/01/17 14:17:28;;;;;;;12.47;8.67;;;;;;;;;;4932866;29;20441;-61
2023/01/17 14:20:04;;;;;;;12.83;7.83;;;;;;;;;;4903899;29;20455;-62
2023/01/17 14:22:38;;;;;;;12.10;8.37;;;;;;;;;;4932584;29;20943;-62
2023/01/17 14:25:18;;;;;;;14.33;9.40;;;;;;;;;;4932405;29;21192;-62
2023/01/17 14:27:47;;;;;;;13.23;9.73;;;;;;;;;;4931886;29;20836;-62
2023/01/17 14:30:16;;;;;;;16.00;9.90;;;;;;;;;;4929681;29;20502;-62
2023/01/17 14:32:59;;;;;;;13.43;8.77;;;;;;;;;;4932523;29;20435;-62
2023/01/17 14:35:33;;;;;;;11.07;7.50;;;;;;;;;;4932381;29;20497;-62
2023/01/17 14:38:04;;;;;;;12.00;8.17;;;;;;;;;;4933023;29;20530;-62
2023/01/17 14:40:55;;;;;;;10.77;7.00;;;;;;;;;;4933006;29;20938;-62
2023/01/17 14:43:22;;;;;;;13.23;8.13;;;;;;;;;;4915998;29;20536;-62
2023/01/17 14:45:55;;;;;;;12.40;8.17;;;;;;;;;;4932392;29;20431;-62
2023/01/17 14:48:22;;;;;;;15.30;8.33;;;;;;;;;;4932545;29;20482;-63
2023/01/17 14:50:49;;;;;;;13.20;8.13;;;;;;;;;;4932051;29;20438;-62
2023/01/17 14:53:16;;;;;;;11.97;6.97;;;;;;;;;;4933290;29;20470;-62
2023/01/17 14:55:46;;;;;;;10.57;7.33;;;;;;;;;;4932929;29;20439;-62
2023/01/17 14:58:16;;;;;;;9.40;6.27;;;;;;;;;;4933011;29;20201;-62
2023/01/17 15:00:43;;;;;;;10.07;6.43;;;;;;;;;;4929343;29;20438;-62
2023/01/17 15:03:10;;;;;;;10.53;7.07;;;;;;;;;;4932943;29;20481;-62
2023/01/17 15:05:43;;;;;;;10.30;6.57;;;;;;;;;;4931722;29;20246;-62
2023/01/17 15:08:13;;;;;;;8.93;6.30;;;;;;;;;;4933213;29;20498;-62
2023/01/17 15:10:59;;;;;;;10.97;6.80;;;;;;;;;;4931562;29;20453;-62
2023/01/17 15:13:30;;;;;;;11.70;7.17;;;;;;;;;;4931761;29;20530;-62
2023/01/17 15:16:19;;;;;;;11.97;6.87;;;;;;;;;;4915439;29;20451;-61
2023/01/17 15:18:46;;;;;;;9.93;6.80;;;;;;;;;;4933708;29;20203;-62
2023/01/17 15:21:18;;;;;;;10.43;6.73;;;;;;;;;;4935699;29;20191;-62
2023/01/17 15:23:45;;;;;;;7.83;5.63;;;;;;;;;;4934803;29;20282;-62
2023/01/17 15:26:12;;;;;;;8.60;5.83;;;;;;;;;;4935940;29;20460;-62
2023/01/17 15:28:39;;;;;;;8.17;5.57;;;;;;;;;;4936392;29;20230;-62
2023/01/17 15:31:09;;;;;;;8.23;5.33;;;;;;;;;;4934670;29;20442;-62
2023/01/17 15:33:37;;;;;;;7.67;5.37;;;;;;;;;;4935714;29;20435;-62
2023/01/17 15:36:05;;;;;;;7.20;4.83;;;;;;;;;;4934481;29;20445;-62
2023/01/17 15:38:32;;;;;;;7.70;5.40;;;;;;;;;;4935777;29;20812;-62
2023/01/17 15:41:12;;;;;;;9.53;4.97;;;;;;;;;;4936259;29;20530;-62
2023/01/17 15:43:40;;;;;;;8.10;4.60;;;;;;;;;;4936477;29;20434;-62
2023/01/17 15:46:18;;;;;;;7.27;4.40;;;;;;;;;;4935931;29;20443;-62
2023/01/17 15:48:46;;;;;;;8.60;4.27;;;;;;;;;;4934405;29;20485;-62
2023/01/17 15:51:12;;;;;;;6.40;4.17;;;;;;;;;;4935822;29;20241;-61
2023/01/17 15:53:40;;;;;;;7.13;4.17;;;;;;;;;;4936154;29;20992;-62
2023/01/17 15:56:17;;;;;;;5.50;3.83;;;;;;;;;;4936020;29;20501;-61
2023/01/17 15:58:47;;;;;;;5.80;4.20;;;;;;;;;;4935727;29;20426;-62
2023/01/17 16:01:16;;;;;;;6.00;3.60;;;;;;;;;;4935099;29;20502;-63
2023/01/17 16:03:52;;;;;;;5.93;3.87;;;;;;;;;;4935910;29;21041;-62
2023/01/17 16:06:49;;;;;;;7.97;3.77;;;;;;;;;;4935385;29;20784;-62
2023/01/17 16:09:22;;;;;;;5.17;3.60;;;;;;;;;;4922555;29;20454;-62
2023/01/17 16:11:48;;;;;;;8.47;4.73;;;;;;;;;;4934981;29;20438;-62
2023/01/17 16:14:16;;;;;;;7.13;4.80;;;;;;;;;;4935259;29;20609;-62
2023/01/17 16:16:52;;;;;;;6.43;4.30;;;;;;;;;;4935545;29;20439;-62
2023/01/17 16:19:20;;;;;;;7.70;4.80;;;;;;;;;;4935731;29;20442;-63
2023/01/17 16:21:47;;;;;;;8.03;4.40;;;;;;;;;;4934766;29;20541;-62
2023/01/17 16:24:14;;;;;;;7.90;4.53;;;;;;;;;;4934733;29;20445;-62
2023/01/17 16:26:40;;;;;;;7.77;4.73;;;;;;;;;;4934769;29;20497;-62
2023/01/17 16:29:07;;;;;;;8.00;5.13;;;;;;;;;;4934742;29;20471;-62
2023/01/17 16:31:34;;;;;;;11.27;6.50;;;;;;;;;;4934336;29;20431;-62
2023/01/17 16:34:18;;;;;;;13.03;7.20;;;;;;;;;;4935334;29;20485;-62
2023/01/17 16:36:45;;;;;;;12.80;7.07;;;;;;;;;;4934752;29;20431;-62
2023/01/17 16:39:12;;;;;;;8.10;5.17;;;;;;;;;;4934649;29;20442;-62
2023/01/17 16:41:39;;;;;;;9.20;5.73;;;;;;;;;;4934939;29;20919;-62
2023/01/17 16:44:05;;;;;;;9.50;5.83;;;;;;;;;;4935402;29;20446;-61